createdAt,value
2019-01-19T00:00:11.351Z,97592.75
2019-01-19T00:01:30.011Z,97596.76
2019-01-19T00:02:36.569Z,97596.19
2019-01-19T00:03:55.126Z,97595.16
2019-01-19T00:05:10.690Z,97599.64
2019-01-19T00:06:21.539Z,97601.04
2019-01-19T00:07:28.120Z,97606.30
2019-01-19T00:08:34.461Z,97604.53
2019-01-19T00:09:41.020Z,97600.01
2019-01-19T00:10:47.580Z,97601.91
2019-01-19T00:12:06.286Z,97602.64
2019-01-19T00:13:30.773Z,97605.97
2019-01-19T00:14:34.057Z,97600.30
2019-01-19T00:15:49.549Z,97597.30
2019-01-19T00:16:58.719Z,97603.36
2019-01-19T00:18:07.821Z,97609.27
2019-01-19T00:19:23.148Z,97604.33
2019-01-19T00:20:53.860Z,97600.27
2019-01-19T00:22:09.254Z,97608.92
2019-01-19T00:23:21.524Z,97598.39
2019-01-19T00:24:28.085Z,97601.44
2019-01-19T00:25:46.007Z,97601.44
2019-01-19T00:27:09.890Z,97596.25
2019-01-19T00:28:38.831Z,97597.64
2019-01-19T00:29:45.389Z,97603.67
2019-01-19T00:31:18.023Z,97602.69
2019-01-19T00:32:27.381Z,97604.41
2019-01-19T00:33:36.681Z,97601.91
2019-01-19T00:34:54.638Z,97596.88
2019-01-19T00:36:15.816Z,97598.55
2019-01-19T00:37:22.415Z,97592.74
2019-01-19T00:38:46.565Z,97601.98
2019-01-19T00:40:23.379Z,97598.83
2019-01-19T00:41:51.241Z,97604.38
2019-01-19T00:42:57.212Z,97606.42
2019-01-19T00:44:22.611Z,97609.27
2019-01-19T00:45:55.301Z,97605.19
2019-01-19T00:47:01.863Z,97607.53
2019-01-19T00:48:28.981Z,97612.52
2019-01-19T00:49:33.067Z,97618.30
2019-01-19T00:50:54.828Z,97625.55
2019-01-19T00:52:13.514Z,97614.40
2019-01-19T00:53:22.531Z,97617.63
2019-01-19T00:54:29.129Z,97619.67
2019-01-19T00:55:38.396Z,97622.25
2019-01-19T00:56:47.738Z,97624.89
2019-01-19T00:57:54.302Z,97617.61
2019-01-19T00:59:00.928Z,97622.69
2019-01-19T01:00:10.233Z,97621.73
2019-01-19T01:01:25.458Z,97623.05
2019-01-19T01:02:32.086Z,97616.47
2019-01-19T01:03:41.452Z,97613.69
2019-01-19T01:04:48.018Z,97608.47
2019-01-19T01:06:06.612Z,97607.18
2019-01-19T01:07:13.169Z,97606.64
2019-01-19T01:08:28.766Z,97607.39
2019-01-19T01:09:50.416Z,97614.98
2019-01-19T01:10:56.976Z,97612.23
2019-01-19T01:12:23.333Z,97613.14
2019-01-19T01:13:47.965Z,97613.73
2019-01-19T01:15:00.710Z,97615.23
2019-01-19T01:16:07.591Z,97617.09
2019-01-19T01:17:14.151Z,97621.06
2019-01-19T01:18:29.826Z,97621.87
2019-01-19T01:19:57.361Z,97622.52
2019-01-19T01:21:38.954Z,97621.05
2019-01-19T01:22:51.258Z,97615.43
2019-01-19T01:23:57.863Z,97621.69
2019-01-19T01:25:07.118Z,97625.01
2019-01-19T01:26:29.103Z,97619.39
2019-01-19T01:27:44.309Z,97619.83
2019-01-19T01:29:22.555Z,97625.03
2019-01-19T01:30:47.175Z,97616.39
2019-01-19T01:32:05.707Z,97621.43
2019-01-19T01:33:31.993Z,97617.77
2019-01-19T01:35:07.343Z,97616.22
2019-01-19T01:36:25.307Z,97610.69
2019-01-19T01:37:37.906Z,97610.33
2019-01-19T01:38:47.510Z,97611.84
2019-01-19T01:40:11.062Z,97609.06
2019-01-19T01:41:26.427Z,97612.58
2019-01-19T01:42:52.666Z,97609.58
2019-01-19T01:44:05.135Z,97614.36
2019-01-19T01:45:11.686Z,97606.88
2019-01-19T01:46:23.855Z,97608.40
2019-01-19T01:47:50.152Z,97607.10
2019-01-19T01:49:14.669Z,97613.81
2019-01-19T01:50:24.145Z,97614.56
2019-01-19T01:51:42.138Z,97614.36
2019-01-19T01:53:08.324Z,97609.66
2019-01-19T01:54:26.903Z,97610.84
2019-01-19T01:55:33.538Z,97606.09
2019-01-19T01:56:36.833Z,97611.10
2019-01-19T01:57:42.974Z,97611.12
2019-01-19T01:58:55.278Z,97600.73
2019-01-19T02:00:13.865Z,97606.45
2019-01-19T02:01:26.050Z,97605.98
2019-01-19T02:02:35.581Z,97605.33
2019-01-19T02:03:44.954Z,97606.78
2019-01-19T02:05:11.138Z,97610.38
2019-01-19T02:06:26.586Z,97605.84
2019-01-19T02:07:41.767Z,97605.99
2019-01-19T02:09:11.260Z,97605.92
2019-01-19T02:10:26.841Z,97601.53
2019-01-19T02:11:33.384Z,97603.36
2019-01-19T02:12:46.201Z,97599.13
2019-01-19T02:13:52.759Z,97599.64
2019-01-19T02:15:14.418Z,97594.05
2019-01-19T02:16:37.606Z,97600.03
2019-01-19T02:18:13.940Z,97595.02
2019-01-19T02:19:26.448Z,97598.23
2019-01-19T02:20:35.526Z,97595.74
2019-01-19T02:21:57.175Z,97589.66
2019-01-19T02:23:03.738Z,97589.86
2019-01-19T02:24:25.542Z,97593.73
2019-01-19T02:25:34.982Z,97590.03
2019-01-19T02:27:10.163Z,97592.08
2019-01-19T02:28:28.560Z,97585.06
2019-01-19T02:29:41.006Z,97593.04
2019-01-19T02:31:06.049Z,97587.26
2019-01-19T02:32:18.149Z,97590.80
2019-01-19T02:33:36.288Z,97588.45
2019-01-19T02:34:42.883Z,97583.18
2019-01-19T02:36:15.379Z,97582.44
2019-01-19T02:37:33.681Z,97588.52
2019-01-19T02:38:55.080Z,97589.25
2019-01-19T02:40:16.542Z,97588.22
2019-01-19T02:41:41.246Z,97585.89
2019-01-19T02:43:07.288Z,97578.70
2019-01-19T02:44:25.637Z,97580.68
2019-01-19T02:46:02.489Z,97587.28
2019-01-19T02:47:14.752Z,97584.06
2019-01-19T02:48:40.801Z,97591.87
2019-01-19T02:49:51.301Z,97589.97
2019-01-19T02:50:57.862Z,97588.80
2019-01-19T02:52:19.491Z,97585.02
2019-01-19T02:53:28.904Z,97584.57
2019-01-19T02:54:49.926Z,97580.18
2019-01-19T02:56:02.189Z,97580.98
2019-01-19T02:57:11.682Z,97581.27
2019-01-19T02:58:42.829Z,97572.59
2019-01-19T02:59:52.328Z,97574.75
2019-01-19T03:01:30.562Z,97578.19
2019-01-19T03:02:40.039Z,97576.89
2019-01-19T03:03:49.227Z,97580.38
2019-01-19T03:05:01.489Z,97574.84
2019-01-19T03:06:08.040Z,97575.88
2019-01-19T03:07:20.474Z,97573.58
2019-01-19T03:08:35.704Z,97570.97
2019-01-19T03:09:50.043Z,97574.19
2019-01-19T03:10:56.703Z,97580.02
2019-01-19T03:12:03.695Z,97582.28
2019-01-19T03:13:36.978Z,97579.95
2019-01-19T03:14:58.368Z,97579.22
2019-01-19T03:16:19.859Z,97577.45
2019-01-19T03:17:48.879Z,97572.77
2019-01-19T03:19:22.553Z,97573.00
2019-01-19T03:20:34.771Z,97576.20
2019-01-19T03:21:59.093Z,97568.58
2019-01-19T03:23:20.766Z,97567.05
2019-01-19T03:24:36.255Z,97576.77
2019-01-19T03:25:42.814Z,97575.05
2019-01-19T03:27:00.628Z,97573.15
2019-01-19T03:28:12.924Z,97578.02
2019-01-19T03:29:25.663Z,97579.92
2019-01-19T03:30:44.261Z,97578.62
2019-01-19T03:31:50.812Z,97578.15
2019-01-19T03:33:19.998Z,97573.69
2019-01-19T03:35:01.508Z,97577.71
2019-01-19T03:36:23.163Z,97573.91
2019-01-19T03:37:44.996Z,97575.90
2019-01-19T03:39:05.334Z,97577.38
2019-01-19T03:40:20.596Z,97583.33
2019-01-19T03:41:33.477Z,97578.44
2019-01-19T03:43:08.251Z,97577.24
2019-01-19T03:44:32.578Z,97567.74
2019-01-19T03:45:48.207Z,97574.02
2019-01-19T03:47:09.945Z,97578.48
2019-01-19T03:48:24.641Z,97581.05
2019-01-19T03:49:33.982Z,97575.20
2019-01-19T03:50:56.979Z,97576.31
2019-01-19T03:52:19.982Z,97579.02
2019-01-19T03:53:29.665Z,97578.41
2019-01-19T03:54:54.271Z,97578.88
2019-01-19T03:56:12.729Z,97574.33
2019-01-19T03:57:41.867Z,97571.75
2019-01-19T03:58:54.560Z,97574.20
2019-01-19T04:00:17.380Z,97574.79
2019-01-19T04:01:32.529Z,97569.27
2019-01-19T04:02:45.077Z,97568.49
2019-01-19T04:03:51.660Z,97565.58
2019-01-19T04:05:15.223Z,97564.33
2019-01-19T04:06:27.382Z,97570.97
2019-01-19T04:07:43.051Z,97575.64
2019-01-19T04:08:59.237Z,97576.67
2019-01-19T04:10:05.796Z,97577.50
2019-01-19T04:11:24.447Z,97571.63
2019-01-19T04:12:36.984Z,97571.11
2019-01-19T04:13:43.540Z,97570.08
2019-01-19T04:14:53.254Z,97576.18
2019-01-19T04:16:02.586Z,97573.67
2019-01-19T04:17:09.142Z,97572.94
2019-01-19T04:18:24.668Z,97578.44
2019-01-19T04:19:37.163Z,97576.36
2019-01-19T04:21:04.680Z,97570.83
2019-01-19T04:22:13.987Z,97575.58
2019-01-19T04:23:17.690Z,97575.13
2019-01-19T04:24:26.887Z,97576.18
2019-01-19T04:25:42.580Z,97574.40
2019-01-19T04:26:46.419Z,97578.14
2019-01-19T04:27:49.720Z,97573.44
2019-01-19T04:28:53.289Z,97573.23
2019-01-19T04:29:56.591Z,97575.64
2019-01-19T04:30:59.980Z,97573.02
2019-01-19T04:32:03.458Z,97571.91
2019-01-19T04:33:06.745Z,97569.79
2019-01-19T04:34:10.106Z,97576.89
2019-01-19T04:35:13.403Z,97574.33
2019-01-19T04:36:21.628Z,97578.05
2019-01-19T04:37:21.989Z,97575.70
2019-01-19T04:38:25.672Z,97579.13
2019-01-19T04:39:29.333Z,97574.09
2019-01-19T04:40:32.653Z,97579.15
2019-01-19T04:41:35.936Z,97582.58
2019-01-19T04:42:40.539Z,97582.37
2019-01-19T04:43:43.845Z,97581.28
2019-01-19T04:44:47.140Z,97582.72
2019-01-19T04:45:50.426Z,97580.08
2019-01-19T04:46:53.799Z,97579.73
2019-01-19T04:47:57.136Z,97585.00
2019-01-19T04:49:00.486Z,97581.85
2019-01-19T04:50:04.343Z,97581.28
2019-01-19T04:51:07.630Z,97578.12
2019-01-19T04:52:10.914Z,97582.86
2019-01-19T04:53:14.257Z,97580.77
2019-01-19T04:54:17.557Z,97585.85
2019-01-19T04:55:20.875Z,97586.91
2019-01-19T04:56:24.171Z,97590.91
2019-01-19T04:57:27.459Z,97590.13
2019-01-19T04:58:30.750Z,97592.58
2019-01-19T04:59:34.036Z,97586.05
2019-01-19T05:00:37.359Z,97587.22
2019-01-19T05:01:40.650Z,97583.55
2019-01-19T05:02:43.963Z,97587.97
2019-01-19T05:03:47.406Z,97593.73
2019-01-19T05:04:50.799Z,97593.17
2019-01-19T05:05:54.137Z,97586.45
2019-01-19T05:06:57.433Z,97588.05
2019-01-19T05:08:00.724Z,97592.64
2019-01-19T05:09:06.598Z,97595.20
2019-01-19T05:10:11.727Z,97598.03
2019-01-19T05:11:15.419Z,97594.05
2019-01-19T05:12:18.781Z,97592.73
2019-01-19T05:13:22.075Z,97600.42
2019-01-19T05:14:25.431Z,97596.26
2019-01-19T05:15:28.716Z,97597.64
2019-01-19T05:16:32.015Z,97594.02
2019-01-19T05:17:35.479Z,97598.04
2019-01-19T05:18:38.778Z,97603.99
2019-01-19T05:19:42.084Z,97597.70
2019-01-19T05:20:45.371Z,97599.83
2019-01-19T05:21:48.697Z,97598.51
2019-01-19T05:22:51.978Z,97603.77
2019-01-19T05:23:55.442Z,97599.77
2019-01-19T05:24:58.861Z,97606.00
2019-01-19T05:26:02.210Z,97603.91
2019-01-19T05:27:05.569Z,97609.41
2019-01-19T05:28:08.935Z,97602.83
2019-01-19T05:29:12.230Z,97603.30
2019-01-19T05:30:17.664Z,97607.46
2019-01-19T05:31:20.958Z,97603.28
2019-01-19T05:32:24.747Z,97603.06
2019-01-19T05:33:28.076Z,97605.04
2019-01-19T05:34:31.367Z,97609.06
2019-01-19T05:35:34.659Z,97610.84
2019-01-19T05:36:38.616Z,97613.16
2019-01-19T05:37:42.111Z,97619.00
2019-01-19T05:38:45.434Z,97617.17
2019-01-19T05:39:48.728Z,97615.28
2019-01-19T05:40:52.026Z,97611.64
2019-01-19T05:41:55.316Z,97619.59
2019-01-19T05:42:58.634Z,97618.81
2019-01-19T05:44:01.962Z,97616.11
2019-01-19T05:45:07.883Z,97621.14
2019-01-19T05:46:11.185Z,97619.00
2019-01-19T05:47:14.575Z,97618.95
2019-01-19T05:48:17.975Z,97615.67
2019-01-19T05:49:21.298Z,97616.83
2019-01-19T05:50:24.593Z,97622.69
2019-01-19T05:51:27.893Z,97621.06
2019-01-19T05:52:31.340Z,97626.84
2019-01-19T05:53:34.635Z,97628.73
2019-01-19T05:54:38.020Z,97633.66
2019-01-19T05:55:41.399Z,97625.14
2019-01-19T05:56:44.749Z,97627.59
2019-01-19T05:57:48.047Z,97634.53
2019-01-19T05:58:51.334Z,97626.40
2019-01-19T05:59:54.662Z,97631.89
2019-01-19T06:00:58.350Z,97627.95
2019-01-19T06:02:01.720Z,97630.56
2019-01-19T06:03:05.054Z,97633.66
2019-01-19T06:04:08.375Z,97631.23
2019-01-19T06:05:11.703Z,97631.11
2019-01-19T06:06:15.171Z,97629.77
2019-01-19T06:07:18.504Z,97632.69
2019-01-19T06:08:21.803Z,97632.17
2019-01-19T06:09:25.099Z,97627.42
2019-01-19T06:10:28.435Z,97633.51
2019-01-19T06:11:31.821Z,97636.29
2019-01-19T06:12:35.109Z,97639.65
2019-01-19T06:13:38.393Z,97631.58
2019-01-19T06:14:41.682Z,97638.23
2019-01-19T06:15:45.015Z,97647.00
2019-01-19T06:16:48.305Z,97637.91
2019-01-19T06:17:51.596Z,97640.82
2019-01-19T06:18:55.154Z,97636.75
2019-01-19T06:19:58.520Z,97642.05
2019-01-19T06:21:02.301Z,97643.93
2019-01-19T06:22:05.960Z,97644.30
2019-01-19T06:23:09.244Z,97645.62
2019-01-19T06:24:12.550Z,97647.31
2019-01-19T06:25:16.548Z,97652.98
2019-01-19T06:26:19.859Z,97652.03
2019-01-19T06:27:23.145Z,97653.92
2019-01-19T06:28:26.443Z,97643.54
2019-01-19T06:29:29.730Z,97649.23
2019-01-19T06:30:33.031Z,97652.06
2019-01-19T06:31:36.362Z,97650.00
2019-01-19T06:32:39.721Z,97651.49
2019-01-19T06:33:43.086Z,97651.09
2019-01-19T06:34:46.472Z,97656.44
2019-01-19T06:35:49.781Z,97656.50
2019-01-19T06:36:55.049Z,97655.41
2019-01-19T06:37:58.172Z,97662.08
2019-01-19T06:39:01.520Z,97655.29
2019-01-19T06:40:10.993Z,97657.12
2019-01-19T06:41:14.345Z,97656.69
2019-01-19T06:42:17.757Z,97656.74
2019-01-19T06:43:21.039Z,97659.56
2019-01-19T06:44:24.332Z,97652.69
2019-01-19T06:45:27.627Z,97655.98
2019-01-19T06:46:30.916Z,97654.88
2019-01-19T06:47:34.241Z,97658.38
2019-01-19T06:48:37.601Z,97652.30
2019-01-19T06:49:40.885Z,97656.27
2019-01-19T06:50:44.191Z,97654.44
2019-01-19T06:51:47.491Z,97655.68
2019-01-19T06:52:50.806Z,97653.42
2019-01-19T06:54:01.518Z,97655.91
2019-01-19T06:55:00.591Z,97662.39
2019-01-19T06:56:04.254Z,97663.00
2019-01-19T06:57:07.682Z,97660.58
2019-01-19T06:58:11.092Z,97663.19
2019-01-19T06:59:17.459Z,97671.47
2019-01-19T07:00:19.483Z,97671.05
2019-01-19T07:01:22.779Z,97672.93
2019-01-19T07:02:26.154Z,97672.30
2019-01-19T07:03:29.476Z,97677.20
2019-01-19T07:04:32.772Z,97679.53
2019-01-19T07:05:36.061Z,97675.94
2019-01-19T07:06:39.436Z,97676.58
2019-01-19T07:07:42.789Z,97682.44
2019-01-19T07:08:46.191Z,97675.12
2019-01-19T07:09:49.488Z,97673.06
2019-01-19T07:10:52.788Z,97676.38
2019-01-19T07:11:58.745Z,97671.68
2019-01-19T07:13:02.067Z,97677.48
2019-01-19T07:14:05.402Z,97675.98
2019-01-19T07:15:10.807Z,97675.55
2019-01-19T07:16:14.150Z,97680.09
2019-01-19T07:17:17.805Z,97681.41
2019-01-19T07:18:21.097Z,97678.02
2019-01-19T07:19:26.051Z,97685.65
2019-01-19T07:20:30.959Z,97679.80
2019-01-19T07:21:34.550Z,97683.75
2019-01-19T07:22:37.837Z,97682.21
2019-01-19T07:23:41.120Z,97688.22
2019-01-19T07:24:46.836Z,97685.06
2019-01-19T07:25:51.407Z,97687.41
2019-01-19T07:26:58.716Z,97681.99
2019-01-19T07:28:01.946Z,97687.02
2019-01-19T07:29:05.309Z,97689.17
2019-01-19T07:30:16.281Z,97689.23
2019-01-19T07:31:19.593Z,97690.81
2019-01-19T07:32:24.503Z,97689.91
2019-01-19T07:33:29.427Z,97696.80
2019-01-19T07:34:35.985Z,97693.64
2019-01-19T07:35:41.039Z,97696.00
2019-01-19T07:36:45.970Z,97692.92
2019-01-19T07:37:50.913Z,97687.41
2019-01-19T07:38:54.268Z,97688.42
2019-01-19T07:39:57.627Z,97689.24
2019-01-19T07:41:00.952Z,97687.23
2019-01-19T07:42:04.254Z,97685.97
2019-01-19T07:43:08.512Z,97694.22
2019-01-19T07:44:11.801Z,97687.05
2019-01-19T07:45:15.791Z,97687.35
2019-01-19T07:46:19.341Z,97689.00
2019-01-19T07:47:24.589Z,97690.03
2019-01-19T07:48:27.974Z,97685.03
2019-01-19T07:49:34.454Z,97682.50
2019-01-19T07:50:37.744Z,97690.26
2019-01-19T07:51:43.436Z,97690.58
2019-01-19T07:52:46.802Z,97689.59
2019-01-19T07:53:50.164Z,97692.00
2019-01-19T07:54:56.454Z,97694.69
2019-01-19T07:55:59.773Z,97689.17
2019-01-19T07:57:03.100Z,97690.02
2019-01-19T07:58:06.449Z,97689.38
2019-01-19T07:59:09.765Z,97691.79
2019-01-19T08:00:21.912Z,97693.44
2019-01-19T08:01:25.482Z,97691.42
2019-01-19T08:02:28.940Z,97696.50
2019-01-19T08:03:32.348Z,97698.38
2019-01-19T08:04:35.702Z,97690.48
2019-01-19T08:05:39.061Z,97698.97
2019-01-19T08:06:42.451Z,97697.34
2019-01-19T08:07:45.893Z,97700.54
2019-01-19T08:08:51.038Z,97704.27
2019-01-19T08:09:54.386Z,97705.47
2019-01-19T08:10:57.772Z,97702.90
2019-01-19T08:12:01.056Z,97698.20
2019-01-19T08:13:04.388Z,97706.67
2019-01-19T08:14:07.721Z,97701.38
2019-01-19T08:15:14.356Z,97705.13
2019-01-19T08:16:17.814Z,97708.59
2019-01-19T08:17:21.172Z,97709.37
2019-01-19T08:18:26.662Z,97710.41
2019-01-19T08:19:29.957Z,97708.84
2019-01-19T08:20:33.318Z,97712.52
2019-01-19T08:21:38.133Z,97712.27
2019-01-19T08:22:41.396Z,97710.34
2019-01-19T08:23:44.725Z,97713.03
2019-01-19T08:24:48.084Z,97713.61
2019-01-19T08:25:51.454Z,97707.23
2019-01-19T08:26:54.810Z,97710.12
2019-01-19T08:27:58.132Z,97717.28
2019-01-19T08:29:01.559Z,97714.68
2019-01-19T08:30:14.119Z,97711.55
2019-01-19T08:31:19.074Z,97715.02
2019-01-19T08:32:22.455Z,97709.66
2019-01-19T08:33:25.749Z,97710.70
2019-01-19T08:34:29.271Z,97712.59
2019-01-19T08:35:33.019Z,97719.47
2019-01-19T08:36:36.314Z,97715.22
2019-01-19T08:37:39.603Z,97716.34
2019-01-19T08:38:44.674Z,97720.56
2019-01-19T08:39:48.393Z,97719.80
2019-01-19T08:40:51.699Z,97720.61
2019-01-19T08:41:55.027Z,97723.30
2019-01-19T08:43:02.699Z,97726.00
2019-01-19T08:44:06.043Z,97717.82
2019-01-19T08:45:10.894Z,97721.52
2019-01-19T08:46:14.596Z,97719.12
2019-01-19T08:47:20.080Z,97720.75
2019-01-19T08:48:26.020Z,97726.33
2019-01-19T08:49:29.396Z,97722.33
2019-01-19T08:50:32.726Z,97722.31
2019-01-19T08:51:36.040Z,97730.20
2019-01-19T08:52:39.341Z,97725.91
2019-01-19T08:53:42.637Z,97727.73
2019-01-19T08:54:46.003Z,97727.39
2019-01-19T08:55:49.368Z,97732.63
2019-01-19T08:56:52.673Z,97731.96
2019-01-19T08:57:56.000Z,97726.73
2019-01-19T08:58:59.299Z,97724.67
2019-01-19T09:00:02.778Z,97725.94
2019-01-19T09:01:06.105Z,97722.32
2019-01-19T09:02:09.548Z,97729.80
2019-01-19T09:03:12.883Z,97726.97
2019-01-19T09:04:16.272Z,97722.03
2019-01-19T09:05:19.830Z,97722.89
2019-01-19T09:06:23.153Z,97729.03
2019-01-19T09:07:33.493Z,97729.83
2019-01-19T09:08:31.867Z,97724.53
2019-01-19T09:09:35.307Z,97730.39
2019-01-19T09:10:38.607Z,97730.69
2019-01-19T09:11:41.939Z,97728.33
2019-01-19T09:12:45.296Z,97727.03
2019-01-19T09:13:48.581Z,97727.00
2019-01-19T09:14:51.891Z,97728.86
2019-01-19T09:15:56.460Z,97728.61
2019-01-19T09:16:59.770Z,97732.89
2019-01-19T09:18:03.125Z,97733.95
2019-01-19T09:19:06.575Z,97732.59
2019-01-19T09:20:14.342Z,97731.22
2019-01-19T09:21:19.262Z,97724.80
2019-01-19T09:22:22.820Z,97725.11
2019-01-19T09:23:27.837Z,97719.81
2019-01-19T09:24:31.480Z,97719.27
2019-01-19T09:25:38.415Z,97722.69
2019-01-19T09:26:44.058Z,97723.78
2019-01-19T09:27:49.478Z,97713.91
2019-01-19T09:28:53.527Z,97716.32
2019-01-19T09:29:57.424Z,97713.16
2019-01-19T09:31:03.274Z,97713.69
2019-01-19T09:32:06.823Z,97711.55
2019-01-19T09:33:10.270Z,97714.19
2019-01-19T09:34:13.575Z,97708.30
2019-01-19T09:35:17.141Z,97705.08
2019-01-19T09:36:20.479Z,97706.35
2019-01-19T09:37:23.774Z,97706.27
2019-01-19T09:38:30.575Z,97699.83
2019-01-19T09:39:33.868Z,97698.95
2019-01-19T09:40:37.279Z,97704.20
2019-01-19T09:41:45.031Z,97701.51
2019-01-19T09:42:48.501Z,97698.92
2019-01-19T09:43:51.840Z,97695.59
2019-01-19T09:44:57.422Z,97700.12
2019-01-19T09:46:00.689Z,97698.73
2019-01-19T09:47:04.062Z,97702.88
2019-01-19T09:48:07.440Z,97691.02
2019-01-19T09:49:10.763Z,97693.44
2019-01-19T09:50:18.452Z,97699.52
2019-01-19T09:51:21.747Z,97695.46
2019-01-19T09:52:25.166Z,97690.98
2019-01-19T09:53:28.893Z,97690.78
2019-01-19T09:54:32.227Z,97688.09
2019-01-19T09:55:35.523Z,97691.74
2019-01-19T09:56:38.918Z,97693.64
2019-01-19T09:57:42.341Z,97681.98
2019-01-19T09:58:45.631Z,97693.38
2019-01-19T09:59:48.969Z,97681.81
2019-01-19T10:00:52.401Z,97679.72
2019-01-19T10:01:55.692Z,97681.52
2019-01-19T10:02:58.987Z,97681.17
2019-01-19T10:04:02.355Z,97681.17
2019-01-19T10:05:08.952Z,97680.58
2019-01-19T10:06:12.251Z,97677.34
2019-01-19T10:07:15.651Z,97673.31
2019-01-19T10:08:20.574Z,97678.44
2019-01-19T10:09:25.655Z,97670.66
2019-01-19T10:10:28.933Z,97673.62
2019-01-19T10:11:32.644Z,97672.33
2019-01-19T10:12:35.975Z,97670.31
2019-01-19T10:13:39.331Z,97663.09
2019-01-19T10:14:42.703Z,97662.22
2019-01-19T10:15:46.117Z,97669.37
2019-01-19T10:16:49.467Z,97664.96
2019-01-19T10:17:52.851Z,97668.61
2019-01-19T10:18:56.241Z,97667.77
2019-01-19T10:19:59.729Z,97661.43
2019-01-19T10:21:03.198Z,97664.09
2019-01-19T10:22:08.312Z,97660.71
2019-01-19T10:23:11.773Z,97664.09
2019-01-19T10:24:15.035Z,97655.00
2019-01-19T10:25:18.325Z,97657.28
2019-01-19T10:26:21.658Z,97656.39
2019-01-19T10:27:24.942Z,97649.16
2019-01-19T10:28:28.235Z,97657.94
2019-01-19T10:29:31.610Z,97651.12
2019-01-19T10:30:34.900Z,97645.44
2019-01-19T10:31:38.227Z,97651.14
2019-01-19T10:32:41.512Z,97653.67
2019-01-19T10:33:44.829Z,97650.72
2019-01-19T10:34:48.130Z,97654.50
2019-01-19T10:35:51.446Z,97647.39
2019-01-19T10:36:54.759Z,97647.30
2019-01-19T10:37:58.125Z,97646.69
2019-01-19T10:39:01.532Z,97647.26
2019-01-19T10:40:08.100Z,97646.80
2019-01-19T10:41:11.479Z,97648.13
2019-01-19T10:42:14.865Z,97640.95
2019-01-19T10:43:18.229Z,97641.25
2019-01-19T10:44:21.678Z,97637.76
2019-01-19T10:45:29.303Z,97638.52
2019-01-19T10:46:32.645Z,97631.01
2019-01-19T10:47:35.908Z,97631.91
2019-01-19T10:48:39.206Z,97629.22
2019-01-19T10:49:42.568Z,97625.23
2019-01-19T10:50:46.278Z,97624.20
2019-01-19T10:51:49.571Z,97625.77
2019-01-19T10:52:52.890Z,97623.49
2019-01-19T10:53:57.915Z,97621.01
2019-01-19T10:55:01.762Z,97625.17
2019-01-19T10:56:05.198Z,97626.54
2019-01-19T10:57:08.503Z,97621.91
2019-01-19T10:58:11.801Z,97619.12
2019-01-19T10:59:15.172Z,97617.56
2019-01-19T11:00:29.985Z,97613.66
2019-01-19T11:01:33.345Z,97614.06
2019-01-19T11:02:36.628Z,97605.66
2019-01-19T11:03:40.075Z,97614.59
2019-01-19T11:04:43.714Z,97612.06
2019-01-19T11:05:47.002Z,97610.00
2019-01-19T11:06:50.391Z,97611.48
2019-01-19T11:07:54.004Z,97604.33
2019-01-19T11:08:57.389Z,97601.28
2019-01-19T11:10:00.817Z,97599.39
2019-01-19T11:11:04.086Z,97601.61
2019-01-19T11:12:07.369Z,97598.57
2019-01-19T11:13:10.671Z,97598.58
2019-01-19T11:14:14.005Z,97594.05
2019-01-19T11:15:18.736Z,97593.54
2019-01-19T11:16:23.864Z,97598.53
2019-01-19T11:17:27.186Z,97590.67
2019-01-19T11:18:30.471Z,97584.64
2019-01-19T11:19:33.793Z,97577.69
2019-01-19T11:20:37.079Z,97577.75
2019-01-19T11:21:40.370Z,97572.86
2019-01-19T11:22:43.680Z,97571.17
2019-01-19T11:23:46.962Z,97572.95
2019-01-19T11:24:50.354Z,97571.84
2019-01-19T11:25:53.761Z,97567.77
2019-01-19T11:26:57.053Z,97569.58
2019-01-19T11:28:00.339Z,97571.03
2019-01-19T11:29:03.702Z,97572.31
2019-01-19T11:30:25.076Z,97573.38
2019-01-19T11:31:28.372Z,97570.57
2019-01-19T11:32:31.669Z,97574.90
2019-01-19T11:33:34.962Z,97570.86
2019-01-19T11:34:38.505Z,97575.45
2019-01-19T11:35:41.881Z,97571.38
2019-01-19T11:36:45.237Z,97571.84
2019-01-19T11:37:48.664Z,97560.44
2019-01-19T11:38:52.035Z,97563.69
2019-01-19T11:39:55.465Z,97555.56
2019-01-19T11:40:58.792Z,97551.49
2019-01-19T11:42:02.068Z,97557.89
2019-01-19T11:43:07.025Z,97552.72
2019-01-19T11:44:10.358Z,97549.92
2019-01-19T11:45:16.055Z,97553.17
2019-01-19T11:46:19.511Z,97548.40
2019-01-19T11:47:22.868Z,97540.48
2019-01-19T11:48:26.149Z,97542.39
2019-01-19T11:49:29.501Z,97540.47
2019-01-19T11:50:32.781Z,97542.34
2019-01-19T11:51:36.140Z,97537.45
2019-01-19T11:52:39.435Z,97531.72
2019-01-19T11:53:42.728Z,97541.39
2019-01-19T11:54:46.696Z,97535.14
2019-01-19T11:55:49.985Z,97531.16
2019-01-19T11:56:53.353Z,97525.13
2019-01-19T11:58:01.617Z,97528.09
2019-01-19T11:59:04.943Z,97523.25
2019-01-19T12:00:22.995Z,97521.67
2019-01-19T12:01:26.317Z,97523.36
2019-01-19T12:02:36.774Z,97531.27
2019-01-19T12:03:34.753Z,97534.37
2019-01-19T12:04:38.108Z,97528.99
2019-01-19T12:05:41.539Z,97532.34
2019-01-19T12:06:44.828Z,97529.32
2019-01-19T12:07:48.160Z,97524.23
2019-01-19T12:08:51.562Z,97517.57
2019-01-19T12:09:55.121Z,97517.97
2019-01-19T12:10:58.476Z,97515.70
2019-01-19T12:12:01.771Z,97509.37
2019-01-19T12:13:05.165Z,97509.66
2019-01-19T12:14:08.453Z,97508.94
2019-01-19T12:15:11.739Z,97511.41
2019-01-19T12:16:19.247Z,97513.33
2019-01-19T12:17:22.510Z,97517.70
2019-01-19T12:18:25.974Z,97513.56
2019-01-19T12:19:29.333Z,97516.14
2019-01-19T12:20:35.640Z,97513.28
2019-01-19T12:21:38.929Z,97517.98
2019-01-19T12:22:42.210Z,97512.05
2019-01-19T12:23:45.590Z,97516.40
2019-01-19T12:24:48.957Z,97523.27
2019-01-19T12:25:52.250Z,97519.02
2019-01-19T12:26:55.536Z,97517.47
2019-01-19T12:27:58.816Z,97511.22
2019-01-19T12:29:02.152Z,97511.03
2019-01-19T12:30:20.585Z,97509.34
2019-01-19T12:31:23.960Z,97511.91
2019-01-19T12:32:27.322Z,97509.14
2019-01-19T12:33:30.614Z,97511.10
2019-01-19T12:34:33.946Z,97500.32
2019-01-19T12:35:37.266Z,97498.52
2019-01-19T12:36:40.581Z,97504.30
2019-01-19T12:37:43.870Z,97496.02
2019-01-19T12:38:47.220Z,97495.73
2019-01-19T12:39:50.544Z,97494.73
2019-01-19T12:40:54.867Z,97503.47
2019-01-19T12:41:58.154Z,97503.69
2019-01-19T12:43:14.026Z,97503.76
2019-01-19T12:44:17.385Z,97501.91
2019-01-19T12:45:24.058Z,97500.83
2019-01-19T12:46:27.373Z,97503.98
2019-01-19T12:47:30.839Z,97500.73
2019-01-19T12:48:34.127Z,97502.77
2019-01-19T12:49:37.419Z,97505.34
2019-01-19T12:50:40.988Z,97501.91
2019-01-19T12:51:44.638Z,97505.12
2019-01-19T12:52:47.988Z,97508.97
2019-01-19T12:53:51.282Z,97508.58
2019-01-19T12:54:54.565Z,97505.56
2019-01-19T12:55:57.950Z,97507.00
2019-01-19T12:57:01.288Z,97500.29
2019-01-19T12:58:05.694Z,97507.34
2019-01-19T12:59:08.982Z,97510.65
2019-01-19T13:00:18.267Z,97506.39
2019-01-19T13:01:21.587Z,97503.27
2019-01-19T13:02:24.873Z,97501.42
2019-01-19T13:03:28.196Z,97502.11
2019-01-19T13:04:31.461Z,97496.95
2019-01-19T13:05:43.991Z,97503.19
2019-01-19T13:06:47.982Z,97497.55
2019-01-19T13:07:52.144Z,97496.68
2019-01-19T13:08:55.506Z,97493.35
2019-01-19T13:09:58.934Z,97488.13
2019-01-19T13:11:08.340Z,97496.09
2019-01-19T13:12:14.936Z,97496.35
2019-01-19T13:13:18.266Z,97494.43
2019-01-19T13:14:21.622Z,97493.55